メインページ
METAR-TAF:

METAR-TAF

空港 :

佐賀空港

佐賀, 日本

緯度: 33-09N, 経度: 130-18E, 海抜: 2m

現時点の気象観測

当レポートは19分前の22:00(UTC)に作成
北西の風 6kt
気温 7°C
湿度 100%
気圧 1019 hPa
視程10km以上
高度2000ftの雲はほとんどない
高度4000ftの雲は散在している

METAR: RJFS 162200Z 32006KT 9999 FEW020 SCT040 07/07 Q1019

時間: 07:19 (22:19 UTC)

予報

当レポートは5時間12分前の17:07(UTC)に作成
予報は16日の 18時(UTC)から 18日の 00時(UTC)まで有効
北東の風 5kt
視程10km以上
高度2000ftの雲はほとんどない
高度5000ftの雲は散在している
17日の 03時(UTC)から 17日の 05時(UTC)まで徐々に
の風 6kt
17日の 18時(UTC)から 17日の 21時(UTC)まで徐々に
北東の風 4kt

TAF: RJFS 161707Z 1618/1800 04005KT 9999 FEW020 SCT050 BECMG 1703/1705 35006KT BECMG 1718/1721 05004KT

4,000以上の空港の気象観測と天気予報(METAR報とTAF報)

利用可能な観測所は地図上に黄色い丸と赤い丸で示す。

丸の上にカーソルを重ねると観測所名を参照できる。

次にクリックすると気象観測と天気予報を参照できる。

マップの切り替え:黒色「×」印の緑ボタンをクリックして拡大、「-」印の緑ボタンをクリックして縮小、緑色の三角印をクリックして隣りの地図に切り替え


METAR-TAF: